Home > Products > Valid Products > TAF

000
FTUS45 KABQ 230800 AAA
TAFROW
TAF AMD
KROW 230824Z 2308/2406 17006KT 1/4SM FG VV002
     FM231400 VRB04KT 4SM BR SCT006
     FM231500 21004KT P6SM SKC
     FM232100 17008KT P6SM SKC=



000
FTUS45 KABQ 230500
TAFABQ
TAF
KABQ 230522Z 2306/2406 15005KT P6SM SKC
     FM232000 26007KT P6SM FEW200
     FM240200 VRB04KT P6SM FEW200=



000
FTUS45 KABQ 230500
TAFROW
TAF
KROW 230522Z 2306/2406 18006KT P6SM FEW100
     FM230800 20004KT P6SM FEW025
      TEMPO 2309/2313 3SM BR BKN015
     FM231400 25005KT P6SM SKC
     FM232100 17008KT P6SM SKC=



000
FTUS45 KABQ 230500
TAFTCC
TAF
KTCC 230522Z 2306/2406 20007KT P6SM SKC
     FM230900 26007KT P6SM SCT025
      TEMPO 2311/2314 4SM BR BKN025
     FM231600 25006KT P6SM SKC=



000
FTUS45 KABQ 230500
TAFLVS
TAF
KLVS 230522Z 2306/2406 VRB06KT P6SM FEW100
     FM231900 21010KT P6SM SKC
     FM240200 22006KT P6SM SKC=



000
FTUS45 KABQ 230500
TAFSAF
TAF
KSAF 230522Z 2306/2406 36006KT P6SM SCT100
     FM231400 36009KT P6SM SKC
     FM232100 28008KT P6SM FEW200=



000
FTUS45 KABQ 230500
TAFFMN
TAF
KFMN 230522Z 2306/2406 07006KT P6SM SKC
     FM232100 25007KT P6SM SKC
     FM240200 33005KT P6SM FEW250=



000
FTUS45 KABQ 230500
TAFGUP
TAF
KGUP 230522Z 2306/2406 VRB04KT P6SM SKC
     FM232000 24007KT P6SM FEW250
     FM240200 VRB03KT P6SM FEW250=



000
FTUS45 KABQ 230000 AAA
TAFTCC
TAF AMD
KTCC 230006Z 2300/2324 20010KT P6SM VCTS SCT060CB SCT080
      TEMPO 2300/2301 VRB15G25KT 3SM RA BKN050
     FM230200 22007KT P6SM SKC
     FM230900 26007KT P6SM SKC=



000
FTUS45 KABQ 230000 AAA
TAFTCC
TAF AMD
KTCC 230006Z 2300/2324 20010KT P6SM VCTS SCT060CB SCT080
      TEMPO 2300/2301 VRB15G25KT 3SM RA BKN050
     FM230200 22007KT P6SM SKC
     FM230900 26007KT P6SM SKC=



000
FTUS45 KABQ 222300
TAFLVS
TAF
KLVS 222329Z 2300/2324 30006KT P6SM SCT090
     FM230500 VRB06KT P6SM FEW100
     FM231900 21010KT P6SM SKC=



000
FTUS45 KABQ 222300
TAFABQ
TAF
KABQ 222329Z 2300/2324 VRB05KT P6SM FEW070
     FM230200 12005KT P6SM SKC
     FM232000 26007KT P6SM SKC=



000
FTUS45 KABQ 222300
TAFGUP
TAF
KGUP 222329Z 2300/2324 24010KT P6SM FEW120
     FM230200 VRB03KT P6SM SKC
     FM232000 24007KT P6SM SKC=



000
FTUS45 KABQ 222300
TAFROW
TAF
KROW 222329Z 2300/2324 16007KT P6SM FEW100
     FM230900 20004KT P6SM FEW025
      TEMPO 2309/2313 2SM BR BKN015
     FM231400 36005KT P6SM SKC
     FM232100 17008KT P6SM SKC=



000
FTUS45 KABQ 222300
TAFFMN
TAF
KFMN 222329Z 2300/2324 30006KT P6SM FEW100
     FM230600 07006KT P6SM SKC
     FM232100 25007KT P6SM SKC=



000
FTUS45 KABQ 222300
TAFSAF
TAF
KSAF 222329Z 2300/2324 32006KT P6SM SCT060
     FM230300 36006KT P6SM SCT100
     FM231400 36009KT P6SM SKC
     FM232100 29008KT P6SM SKC=



000
FTUS45 KABQ 222300
TAFTCC
TAF
KTCC 222329Z 2300/2324 20010KT P6SM VCTS SCT060CB SCT080
      TEMPO 2300/2301 VRB15G25KT BKN050CB
     FM230200 22007KT P6SM SKC
     FM230900 26007KT P6SM SKC=



000
FTUS45 KABQ 222200 AAB
TAFTCC
TAF AMD
KTCC 222245Z 2223/2318 20010KT P6SM VCTS FEW060CB SCT080
      TEMPO 2223/2224 VRB15G25KT BKN050CB
     FM230200 26007KT P6SM SKC=



000
FTUS45 KABQ 222200 AAB
TAFTCC
TAF AMD
KTCC 222245Z 2223/2318 20010KT P6SM VCTS FEW060CB SCT080
      TEMPO 2223/2224 VRB15G25KT BKN050CB
     FM230200 26007KT P6SM SKC=



000
FTUS45 KABQ 222100 AAA
TAFTCC
TAF AMD
KTCC 222141Z 2222/2318 20013KT P6SM FEW060
     FM230800 26007KT P6SM SKC=



000
FTUS45 KABQ 221800 AAA
TAFROW
TAF AMD
KROW 221857Z 2219/2318 18006KT P6SM FEW030
     FM222000 17007KT P6SM SCT050
     FM230900 19004KT 2SM BR SKC
     FM231400 36005KT P6SM SKC=



000
FTUS45 KABQ 221800 AAA
TAFLVS
TAF AMD
KLVS 221857Z 2219/2318 20011KT P6SM SKC
     FM230500 28006KT P6SM SCT120=



000
FTUS45 KABQ 221700
TAFGUP
TAF
KGUP 221737Z 2218/2318 24006KT P6SM SCT120
     FM222000 24010KT P6SM FEW120
     FM230200 00000KT P6SM SKC=



000
FTUS45 KABQ 221700
TAFTCC
TAF
KTCC 221737Z 2218/2318 22015KT P6SM SKC
     FM230800 26007KT P6SM SKC=



000
FTUS45 KABQ 221700
TAFROW
TAF
KROW 221737Z 2218/2318 18006KT P6SM BKN030
     FM222000 17007KT P6SM SCT050
     FM230900 19004KT 2SM BR SKC
     FM231400 36005KT P6SM SKC=



000
FTUS45 KABQ 221700
TAFLVS
TAF
KLVS 221737Z 2218/2318 20011G19KT P6SM SKC
     FM230500 28006KT P6SM SCT120=



000
FTUS45 KABQ 221700
TAFROW
TAF
KROW 221737Z 2218/2318 18006KT P6SM BKN030
     FM222000 17007KT P6SM SCT050
     FM230900 19004KT 2SM BR SKC
     FM231400 36005KT P6SM SKC=



000
FTUS45 KABQ 221700
TAFGUP
TAF
KGUP 221737Z 2218/2318 24006KT P6SM SCT120
     FM222000 24010KT P6SM FEW120
     FM230200 00000KT P6SM SKC=



000
FTUS45 KABQ 221700
TAFLVS
TAF
KLVS 221737Z 2218/2318 20011G19KT P6SM SKC
     FM230500 28006KT P6SM SCT120=



000
FTUS45 KABQ 221700
TAFABQ
TAF
KABQ 221737Z 2218/2318 VRB05KT P6SM FEW070
     FM230200 12005KT P6SM SCT150=



000
FTUS45 KABQ 221700
TAFSAF
TAF
KSAF 221737Z 2218/2318 26011KT P6SM SCT040
     FM230500 36004KT P6SM SCT025=



000
FTUS45 KABQ 221700
TAFTCC
TAF
KTCC 221737Z 2218/2318 22015KT P6SM SKC
     FM230800 26007KT P6SM SKC=



000
FTUS45 KABQ 221700
TAFSAF
TAF
KSAF 221737Z 2218/2318 26011KT P6SM SCT040
     FM230500 36004KT P6SM SCT025=



000
FTUS45 KABQ 221700
TAFFMN
TAF
KFMN 221737Z 2218/2318 VRB04KT P6SM SCT120
     FM222000 27008KT P6SM FEW120
     FM230600 07006KT P6SM SKC=



000
FTUS45 KABQ 221700
TAFFMN
TAF
KFMN 221737Z 2218/2318 VRB04KT P6SM SCT120
     FM222000 27008KT P6SM FEW120
     FM230600 07006KT P6SM SKC=



000
FTUS45 KABQ 221700
TAFABQ
TAF
KABQ 221737Z 2218/2318 VRB05KT P6SM FEW070
     FM230200 12005KT P6SM SCT150=



000
FTUS45 KABQ 221500 AAB
TAFTCC
TAF AMD
KTCC 221532Z 2216/2312 22013KT P6SM BKN050
     FM222000 20010KT P6SM BKN100
     FM230600 25007KT P6SM SCT120=



000
FTUS45 KABQ 221500 AAB
TAFTCC
TAF AMD
KTCC 221532Z 2216/2312 22013KT P6SM BKN050
     FM222000 20010KT P6SM BKN100
     FM230600 25007KT P6SM SCT120=



000
FTUS45 KABQ 221500 AAD
TAFSAF
TAF AMD
KSAF 221525Z 2215/2312 VRB04KT P6SM BKN021
     FM221600 31006KT P6SM FEW020
     FM221900 27008KT P6SM SCT090
     FM230200 36004KT P6SM FEW100=



000
FTUS45 KABQ 221500 AAA
TAFTCC
TAF AMD
KTCC 221501Z 2215/2312 24010KT P6SM SCT020 BKN100
      TEMPO 2215/2216 BKN015
     FM221700 23011KT P6SM BKN050
     FM222000 20010KT P6SM BKN100
     FM230600 25007KT P6SM SCT120=



000
FTUS45 KABQ 221400 AAB
TAFROW
TAF AMD
KROW 221433Z 2215/2312 VRB03KT 3SM BR BKN018
     FM221600 18006KT P6SM BKN025
     FM221900 17007KT P6SM SCT050
     FM231000 19004KT 1SM BR SCT006=



000
FTUS45 KABQ 221400 AAC
TAFSAF
TAF AMD
KSAF 221431Z 2215/2312 00000KT 1/2SM FG VV002
     FM221530 32003KT 4SM BR FEW004
     FM221600 31006KT P6SM FEW020
     FM221900 27008KT P6SM SCT090
     FM230200 36004KT P6SM FEW100=



000
FTUS45 KABQ 221300 AAB
TAFSAF
TAF AMD
KSAF 221320Z 2213/2312 00000KT 1/2SM FG VV002
     FM221430 32003KT 4SM BR FEW004
     FM221500 31006KT P6SM FEW020
     FM221900 27008KT P6SM SCT090
     FM230200 36004KT P6SM FEW100=



000
FTUS45 KABQ 221200 AAA
TAFSAF
TAF AMD
KSAF 221248Z 2213/2312 00000KT 1/2SM FG VV002
     FM221400 32003KT 4SM BR FEW004
     FM221500 31006KT P6SM FEW020
     FM221900 27008KT P6SM SCT090
     FM230200 36004KT P6SM FEW100=



000
FTUS45 KABQ 221100 AAA
TAFROW
TAF AMD
KROW 221156Z 2212/2312 00000KT 1/4SM FG VV002
      TEMPO 2212/2214 1SM BR BKN005
     FM221500 VRB03KT 4SM BR BKN015
     FM221600 18006KT P6SM BKN025
     FM221900 17007KT P6SM SCT050
     FM231000 19004KT 1SM BR SCT006=



000
FTUS45 KABQ 221100
TAFLVS
TAF
KLVS 221137Z 2212/2312 21010KT P6SM BKN100
     FM230100 20007KT P6SM SCT120
     FM230600 28005KT P6SM FEW120=



000
FTUS45 KABQ 221100
TAFFMN
TAF
KFMN 221137Z 2212/2312 08006KT P6SM SCT200
     FM221500 VRB04KT P6SM SCT200
     FM222000 26008KT P6SM SCT120
     FM230700 07005KT P6SM SKC=



000
FTUS45 KABQ 221100
TAFSAF
TAF
KSAF 221137Z 2212/2312 01003KT P6SM BKN004
      TEMPO 2212/2214 1SM BR
     FM221500 31006KT P6SM FEW020
     FM221900 27008KT P6SM SCT090
     FM230200 36004KT P6SM FEW100=



000
FTUS45 KABQ 221100
TAFROW
TAF
KROW 221137Z 2212/2312 16004KT 4SM BR SCT003 OVC013
      TEMPO 2212/2214 1SM BR BKN003
     FM221600 18006KT P6SM BKN025
     FM221900 17007KT P6SM SCT050
     FM231000 19004KT 1SM BR SCT006=



000
FTUS45 KABQ 221100
TAFTCC
TAF
KTCC 221137Z 2212/2312 24010KT P6SM SCT020 BKN100
      TEMPO 2212/2215 BKN015
     FM221700 23011KT P6SM BKN050
     FM222000 20010KT P6SM BKN100
     FM230600 25007KT P6SM SCT120=



000
FTUS45 KABQ 221100
TAFGUP
TAF
KGUP 221137Z 2212/2312 VRB03KT P6SM FEW200
     FM221800 22005KT P6SM FEW120
     FM222000 25009KT P6SM FEW120
     FM230200 00000KT P6SM SKC=



000
FTUS45 KABQ 221100
TAFABQ
TAF
KABQ 221137Z 2212/2312 VRB03KT P6SM SCT100
     FM222000 25007KT P6SM SCT120
     FM230200 12004KT P6SM FEW120=



000
FTUS45 KABQ 221000 AAB
TAFROW
TAF AMD
KROW 221020Z 2210/2306 16003KT 4SM BR OVC015
     FM221600 16007KT P6SM SCT030 BKN060=



000
FTUS45 KABQ 220900 AAA
TAFSAF
TAF AMD
KSAF 220906Z 2209/2306 14006KT P6SM BKN026 OVC110
     FM221500 32007KT P6SM SCT040 SCT070
     FM222000 27008KT P6SM FEW070 SCT140=



000
FTUS45 KABQ 220700 AAA
TAFLVS
TAF AMD
KLVS 220757Z 2208/2306 20009KT 1SM BR OVC002
     FM221600 22013KT P6SM SCT015 BKN050
     FM222100 22015KT P6SM SCT060 SCT130=



000
FTUS45 KABQ 220600 AAB
TAFTCC
TAF AMD
KTCC 220650Z 2207/2306 22009KT P6SM BKN016
     FM221600 23010KT P6SM BKN040
     FM222000 21013KT P6SM SCT070 SCT140=



000
FTUS45 KABQ 220600 AAA
TAFROW
TAF AMD
KROW 220613Z 2206/2306 20004KT P6SM VCSH BKN006 OVC017
      TEMPO 2207/2211 3SM BR
     FM221600 16007KT P6SM SCT030 BKN060=



000
FTUS45 KABQ 220500 AAA
TAFTCC
TAF AMD
KTCC 220543Z 2206/2306 23008KT P6SM SCT030 BKN080
      TEMPO 2206/2209 BKN025 OVC040
     FM220900 22007KT P6SM OVC015
     FM221600 23010KT P6SM BKN040
     FM222000 21013KT P6SM SCT070 SCT140=



000
FTUS45 KABQ 220500 AAA
TAFTCC
TAF AMD
KTCC 220543Z 2206/2306 23008KT P6SM SCT030 BKN080
      TEMPO 2206/2209 BKN025 OVC040
     FM220900 22007KT P6SM OVC015
     FM221600 23010KT P6SM BKN040
     FM222000 21013KT P6SM SCT070 SCT140=



000
FTUS45 KABQ 220500
TAFGUP
TAF
KGUP 220533Z 2206/2306 VRB06KT P6SM SCT100
     FM221600 24006KT P6SM SCT140
     FM222000 25012KT P6SM FEW070 SCT140=



000
FTUS45 KABQ 220500
TAFABQ
TAF
KABQ 220533Z 2206/2306 VRB06KT P6SM SCT050 BKN100
     FM221500 32006KT P6SM FEW060 SCT140
     FM222000 25008KT P6SM FEW070 SCT140=



000
FTUS45 KABQ 220500
TAFTCC
TAF
KTCC 220533Z 2206/2306 23008KT P6SM SCT030 BKN080
     FM220900 22007KT P6SM OVC025
     FM221600 23010KT P6SM BKN040
     FM222000 21013KT P6SM SCT070 SCT140=



000
FTUS45 KABQ 220500
TAFFMN
TAF
KFMN 220533Z 2206/2306 08006KT P6SM BKN100
     FM221400 VRB06KT P6SM SCT100
     FM221900 25010KT P6SM FEW070 SCT140=



000
FTUS45 KABQ 220500
TAFROW
TAF
KROW 220533Z 2206/2306 17009KT P6SM VCSH SCT012 BKN035
      TEMPO 2206/2207 5SM BR OVC012
     FM220700 17006KT 6SM BR OVC012
      TEMPO 2207/2211 3SM BR
     FM221600 16007KT P6SM SCT030 BKN060=



000
FTUS45 KABQ 220500
TAFLVS
TAF
KLVS 220533Z 2206/2306 21008KT 5SM BR OVC005
      TEMPO 2206/2210 2SM BR
     FM221000 21008KT 2SM BR OVC002
     FM221600 22013KT P6SM SCT015 BKN050
     FM222100 22015KT P6SM SCT060 SCT130=



000
FTUS45 KABQ 220500
TAFSAF
TAF
KSAF 220533Z 2206/2306 15006KT P6SM SCT045 BKN100
     FM220700 02006KT P6SM SCT025 BKN050
     FM221500 32007KT P6SM SCT040 SCT070
     FM222000 27008KT P6SM FEW070 SCT140=



000
FTUS45 KABQ 220500
TAFABQ
TAF
KABQ 220533Z 2206/2306 VRB06KT P6SM SCT050 BKN100
     FM221500 32006KT P6SM FEW060 SCT140
     FM222000 25008KT P6SM FEW070 SCT140=



000
FTUS45 KABQ 220500
TAFTCC
TAF
KTCC 220533Z 2206/2306 23008KT P6SM SCT030 BKN080
     FM220900 22007KT P6SM OVC025
     FM221600 23010KT P6SM BKN040
     FM222000 21013KT P6SM SCT070 SCT140=



000
FTUS45 KABQ 220500
TAFFMN
TAF
KFMN 220533Z 2206/2306 08006KT P6SM BKN100
     FM221400 VRB06KT P6SM SCT100
     FM221900 25010KT P6SM FEW070 SCT140=



000
FTUS45 KABQ 220500
TAFGUP
TAF
KGUP 220533Z 2206/2306 VRB06KT P6SM SCT100
     FM221600 24006KT P6SM SCT140
     FM222000 25012KT P6SM FEW070 SCT140=



000
FTUS45 KABQ 220500
TAFROW
TAF
KROW 220533Z 2206/2306 17009KT P6SM VCSH SCT012 BKN035
      TEMPO 2206/2207 5SM BR OVC012
     FM220700 17006KT 6SM BR OVC012
      TEMPO 2207/2211 3SM BR
     FM221600 16007KT P6SM SCT030 BKN060=



000
FTUS45 KABQ 220500
TAFLVS
TAF
KLVS 220533Z 2206/2306 21008KT 5SM BR OVC005
      TEMPO 2206/2210 2SM BR
     FM221000 21008KT 2SM BR OVC002
     FM221600 22013KT P6SM SCT015 BKN050
     FM222100 22015KT P6SM SCT060 SCT130=



000
FTUS45 KABQ 220500
TAFSAF
TAF
KSAF 220533Z 2206/2306 15006KT P6SM SCT045 BKN100
     FM220700 02006KT P6SM SCT025 BKN050
     FM221500 32007KT P6SM SCT040 SCT070
     FM222000 27008KT P6SM FEW070 SCT140=



000
FTUS45 KABQ 220400 AAC
TAFLVS
TAF AMD
KLVS 220438Z 2205/2224 21008KT 5SM BR OVC005
      TEMPO 2205/2209 2SM BR
     FM221600 22013KT P6SM SCT015 BKN050
     FM222100 22015KT P6SM SCT060 SCT130=



000
FTUS45 KABQ 220400 AAC
TAFLVS
TAF AMD
KLVS 220438Z 2205/2224 21008KT 5SM BR OVC005
      TEMPO 2205/2209 2SM BR
     FM221600 22013KT P6SM SCT015 BKN050
     FM222100 22015KT P6SM SCT060 SCT130=



000
FTUS45 KABQ 220400 AAA
TAFROW
TAF AMD
KROW 220405Z 2204/2224 17009KT P6SM VCSH SCT012 BKN035
      TEMPO 2204/2206 OVC012
     FM220600 17006KT P6SM OVC012
     FM221600 16007KT P6SM SCT030 BKN060=



000
FTUS45 KABQ 220400 AAA
TAFROW
TAF AMD
KROW 220405Z 2204/2224 17009KT P6SM VCSH SCT012 BKN035
      TEMPO 2204/2206 OVC012
     FM220600 17006KT P6SM OVC012
     FM221600 16007KT P6SM SCT030 BKN060=



000
FTUS45 KABQ 220400 AAB
TAFLVS
TAF AMD
KLVS 220402Z 2204/2224 21008KT P6SM OVC005
      TEMPO 2209/2213 3SM BR
     FM221600 22013KT P6SM SCT015 BKN050
     FM222100 22015KT P6SM SCT060 SCT130=



000
FTUS45 KABQ 220400 AAB
TAFLVS
TAF AMD
KLVS 220402Z 2204/2224 21008KT P6SM OVC005
      TEMPO 2209/2213 3SM BR
     FM221600 22013KT P6SM SCT015 BKN050
     FM222100 22015KT P6SM SCT060 SCT130=



000
FTUS45 KABQ 220300 AAA
TAFLVS
TAF AMD
KLVS 220327Z 2203/2224 18012KT P6SM VCSH BKN012 BKN040
     FM220700 21008KT P6SM OVC008
      TEMPO 2209/2213 3SM BR
     FM221600 22013KT P6SM SCT015 BKN050
     FM222100 22015KT P6SM SCT060 SCT130=



000
FTUS45 KABQ 212300
TAFROW
TAF
KROW 212340Z 2200/2224 14010KT P6SM VCTS SCT015 BKN040CB
     FM220200 16009KT P6SM VCSH BKN050
     FM220500 20004KT P6SM BKN020
     FM220900 17006KT P6SM OVC015
     FM221600 16007KT P6SM SCT030 BKN060=



000
FTUS45 KABQ 212300
TAFABQ
TAF
KABQ 212340Z 2200/2224 16010KT P6SM VCSH SCT060 BKN090
     FM220300 13006KT P6SM SCT050 BKN080
     FM220600 VRB06KT P6SM SCT050 SCT100
     FM221500 32006KT P6SM FEW060 SCT140
     FM222000 25008KT P6SM FEW070 SCT140=



000
FTUS45 KABQ 212300
TAFLVS
TAF
KLVS 212340Z 2200/2224 18012KT P6SM VCSH SCT030 BKN070
     FM220300 20008KT P6SM SCT025 BKN040
     FM220700 21008KT P6SM OVC015
     FM221600 22013KT P6SM SCT015 BKN050
     FM222100 22015KT P6SM SCT060 SCT130=



000
FTUS45 KABQ 212300
TAFSAF
TAF
KSAF 212340Z 2200/2224 24008KT P6SM VCSH SCT045 BKN090
     FM220300 15006KT P6SM SCT045 BKN100
     FM220600 02006KT P6SM SCT025 BKN050
     FM221500 32007KT P6SM SCT040 SCT070
     FM222000 27008KT P6SM FEW070 SCT140=



000
FTUS45 KABQ 212300
TAFGUP
TAF
KGUP 212340Z 2200/2224 23008KT P6SM VCSH BKN070
     FM220200 VRB06KT P6SM BKN080
     FM220400 VRB06KT P6SM SCT100
     FM221600 24006KT P6SM SCT140
     FM222000 25012KT P6SM FEW070 SCT140=



000
FTUS45 KABQ 212300
TAFTCC
TAF
KTCC 212340Z 2200/2224 23008KT P6SM VCSH SCT040 BKN080
      TEMPO 2200/2202 VRB15G25KT BKN040 OVC070
     FM220400 23008KT P6SM BKN080
     FM220900 22007KT P6SM OVC025
     FM221600 23010KT P6SM BKN040
     FM222000 21013KT P6SM SCT070 SCT140=



000
FTUS45 KABQ 212300
TAFFMN
TAF
KFMN 212340Z 2200/2224 13007KT P6SM VCTS BKN070CB
     FM220100 16007KT P6SM VCSH BKN080
     FM220500 08006KT P6SM BKN100
     FM221200 VRB06KT P6SM SCT100
     FM221900 25010KT P6SM FEW070 SCT140=



000
FTUS45 KABQ 212200 AAA
TAFROW
TAF AMD
KROW 212218Z 2122/2218 15007KT P6SM BKN025 BKN040
     FM212330 16010KT P6SM VCTS BKN040CB
     FM220200 16009KT P6SM VCSH BKN050
     FM220500 20004KT P6SM BKN020=



000
FTUS45 KABQ 212200 AAA
TAFTCC
TAF AMD
KTCC 212218Z 2122/2218 20009G16KT P6SM VCSH SCT050 BKN080
      TEMPO 2123/2201 VRB18G30KT 5SM TSRA OVC040CB
     FM220400 23006KT P6SM BKN080
     FM221000 24004KT P6SM OVC030
     FM221600 23010KT P6SM BKN040=



000
FTUS45 KABQ 212200 AAA
TAFROW
TAF AMD
KROW 212218Z 2122/2218 15007KT P6SM BKN025 BKN040
     FM212330 16010KT P6SM VCTS BKN040CB
     FM220200 16009KT P6SM VCSH BKN050
     FM220500 20004KT P6SM BKN020=



000
FTUS45 KABQ 212200 AAA
TAFTCC
TAF AMD
KTCC 212218Z 2122/2218 20009G16KT P6SM VCSH SCT050 BKN080
      TEMPO 2123/2201 VRB18G30KT 5SM TSRA OVC040CB
     FM220400 23006KT P6SM BKN080
     FM221000 24004KT P6SM OVC030
     FM221600 23010KT P6SM BKN040=



000
FTUS45 KABQ 211700
TAFABQ
TAF
KABQ 211740Z 2118/2218 VRB05KT P6SM FEW040 SCT070
     FM212030 18006KT P6SM VCSH BKN070
     FM212200 19008KT P6SM VCTS BKN070CB
     FM220100 13006KT P6SM VCSH BKN080
     FM220700 11005KT P6SM BKN070
     FM221000 VRB05KT P6SM FEW030 SCT100=



000
FTUS45 KABQ 211700
TAFTCC
TAF
KTCC 211740Z 2118/2218 20009G16KT P6SM SCT040 SCT090
     FM212200 20013G20KT P6SM VCSH SCT050 BKN100
     FM220400 23006KT P6SM BKN080
     FM221000 24004KT P6SM OVC030
     FM221600 23010KT P6SM BKN040=



000
FTUS45 KABQ 211700
TAFGUP
TAF
KGUP 211740Z 2118/2218 VRB05KT P6SM SCT070 SCT120
     FM212000 23008KT P6SM VCTS BKN070CB
     FM220100 VRB06KT P6SM VCSH BKN080
     FM220500 VRB04KT P6SM SCT100=



000
FTUS45 KABQ 211700
TAFROW
TAF
KROW 211740Z 2118/2218 03005KT P6SM VCSH SCT020 BKN035
      TEMPO 2118/2120 VRB05KT BKN015
     FM212000 16006KT P6SM VCSH SCT030 OVC050
     FM212200 16010KT P6SM VCTS OVC050CB
     FM212300 16009KT P6SM BKN050
     FM220500 20004KT P6SM BKN020=



000
FTUS45 KABQ 211700
TAFFMN
TAF
KFMN 211740Z 2118/2218 14007KT P6SM BKN100
     FM212100 21007KT P6SM VCTS BKN070CB
     FM220100 26007KT P6SM VCSH BKN080
     FM220500 08006KT P6SM SCT100=



000
FTUS45 KABQ 211700
TAFLVS
TAF
KLVS 211740Z 2118/2218 19012G18KT P6SM SCT018 BKN030
     FM212000 19014G21KT P6SM VCSH SCT035 BKN070
     FM212100 20014G22KT P6SM VCTS BKN050CB
      TEMPO 2121/2201 VRB16G27KT 5SM SHRA OVC035
     FM220100 18012KT P6SM VCSH BKN060
     FM220500 20008KT P6SM BKN060=



000
FTUS45 KABQ 211700
TAFSAF
TAF
KSAF 211740Z 2118/2218 01005KT P6SM SCT025 BKN050
     FM212000 19008KT P6SM VCSH BKN070
     FM212100 20009KT P6SM VCTS BKN060CB
     FM220100 15006KT P6SM VCSH BKN060
     FM220500 02005KT P6SM FEW030 BKN070=



000
FTUS45 KABQ 211600 AAC
TAFROW
TAF AMD
KROW 211636Z 2117/2212 03005KT P6SM VCSH SCT020 BKN035
      TEMPO 2117/2118 VRB05KT BKN018 OVC040
     FM211800 16006KT P6SM VCSH SCT030 OVC050
     FM212000 16010KT P6SM VCTS OVC050CB
     FM212300 16009KT P6SM BKN050
     FM220500 20004KT P6SM BKN025
     FM221000 VRB03KT 4SM BR OVC015=



000
FTUS45 KABQ 211600 AAB
TAFROW
TAF AMD
KROW 211617Z 2116/2212 36005KT P6SM VCSH FEW025 BKN045
      TEMPO 2116/2118 VRB05KT SCT020 BKN030 OVC045
     FM211800 16006KT P6SM VCSH SCT030 OVC050
     FM212000 16010KT P6SM VCTS OVC050CB
     FM212300 16009KT P6SM BKN050
     FM220500 20004KT P6SM BKN025
     FM221000 VRB03KT 4SM BR OVC015=



000
FTUS45 KABQ 211600 AAB
TAFROW
TAF AMD
KROW 211617Z 2116/2212 36005KT P6SM VCSH FEW025 BKN045
      TEMPO 2116/2118 VRB05KT SCT020 BKN030 OVC045
     FM211800 16006KT P6SM VCSH SCT030 OVC050
     FM212000 16010KT P6SM VCTS OVC050CB
     FM212300 16009KT P6SM BKN050
     FM220500 20004KT P6SM BKN025
     FM221000 VRB03KT 4SM BR OVC015=



000
FTUS45 KABQ 211500 AAA
TAFLVS
TAF AMD
KLVS 211558Z 2116/2212 06003KT P6SM SCT020 BKN030 OVC060
      TEMPO 2116/2118 BKN015 OVC025
     FM211800 19012KT P6SM VCSH BKN070
     FM212100 18014KT P6SM VCTS BKN060CB
     FM220000 18012KT P6SM VCSH BKN060
     FM220500 20008KT P6SM BKN060=



000
FTUS45 KABQ 211500 AAA
TAFSAF
TAF AMD
KSAF 211558Z 2116/2212 01005KT P6SM SCT030 OVC080
      TEMPO 2116/2117 SCT018 BKN025 OVC060
     FM211830 19008KT P6SM VCSH BKN070
     FM212200 20009KT P6SM VCTS BKN060CB
     FM220100 15006KT P6SM VCSH BKN060
     FM220500 02005KT P6SM BKN070=



000
FTUS45 KABQ 211500 AAA
TAFLVS
TAF AMD
KLVS 211558Z 2116/2212 06003KT P6SM SCT020 BKN030 OVC060
      TEMPO 2116/2118 BKN015 OVC025
     FM211800 19012KT P6SM VCSH BKN070
     FM212100 18014KT P6SM VCTS BKN060CB
     FM220000 18012KT P6SM VCSH BKN060
     FM220500 20008KT P6SM BKN060=



000
FTUS45 KABQ 211500 AAA
TAFSAF
TAF AMD
KSAF 211558Z 2116/2212 01005KT P6SM SCT030 OVC080
      TEMPO 2116/2117 SCT018 BKN025 OVC060
     FM211830 19008KT P6SM VCSH BKN070
     FM212200 20009KT P6SM VCTS BKN060CB
     FM220100 15006KT P6SM VCSH BKN060
     FM220500 02005KT P6SM BKN070=



000
FTUS45 KABQ 211300 AAA
TAFROW
TAF AMD
KROW 211339Z 2114/2212 34003KT P6SM VCSH FEW025 BKN045
     FM211700 16006KT P6SM VCSH OVC050
     FM212000 16010KT P6SM VCTS OVC050CB
     FM212300 16009KT P6SM BKN050
     FM220500 20004KT P6SM BKN025
     FM221000 VRB03KT 4SM BR OVC015=



000
FTUS45 KABQ 211200 AAA
TAFABQ
TAF AMD
KABQ 211253Z 2113/2212 01005KT P6SM BKN050
     FM211900 18006KT P6SM VCSH BKN070
     FM212200 17008KT P6SM VCTS BKN070CB
     FM220100 13006KT P6SM VCSH BKN080
     FM220500 11004KT P6SM BKN070=



000
FTUS45 KABQ 211100
TAFROW
TAF
KROW 211129Z 2112/2212 02003KT P6SM VCSH BKN035
      TEMPO 2112/2115 6SM -RA BR OVC025
     FM211700 16006KT P6SM VCSH OVC050
     FM212000 16010KT P6SM VCTS OVC050CB
     FM212300 16009KT P6SM BKN050
     FM220500 20004KT P6SM BKN025
     FM221000 VRB03KT 4SM BR OVC015=



000
FTUS45 KABQ 211100
TAFGUP
TAF
KGUP 211129Z 2112/2212 VRB03KT P6SM FEW080
     FM212000 23008KT P6SM VCTS BKN070CB
     FM212300 25007KT P6SM VCSH BKN080
     FM220400 VRB03KT P6SM SCT100=



000
FTUS45 KABQ 211100
TAFFMN
TAF
KFMN 211129Z 2112/2212 09006KT P6SM BKN100
     FM211700 14007KT P6SM BKN100
     FM212100 21007KT P6SM VCTS BKN070CB
     FM220000 26007KT P6SM VCSH BKN080
     FM220400 08006KT P6SM SCT100=



000
FTUS45 KABQ 211100
TAFTCC
TAF
KTCC 211129Z 2112/2212 26004KT P6SM BKN100
     FM211700 21009KT P6SM BKN090
     FM212000 20013KT P6SM BKN100
     FM220400 23006KT P6SM BKN080
     FM221000 24004KT P6SM OVC030=



000
FTUS45 KABQ 211100
TAFLVS
TAF
KLVS 211129Z 2112/2212 06003KT P6SM OVC080
     FM211700 19012KT P6SM VCSH BKN070
     FM212100 18014KT P6SM VCTS BKN060CB
     FM220000 18012KT P6SM VCSH BKN060
     FM220500 20008KT P6SM BKN060=



000
FTUS45 KABQ 211100
TAFABQ
TAF
KABQ 211129Z 2112/2212 36005KT P6SM BKN060
     FM211900 18006KT P6SM VCSH BKN070
     FM212200 17008KT P6SM VCTS BKN070CB
     FM220100 13006KT P6SM VCSH BKN080
     FM220500 11004KT P6SM BKN070=



000
FTUS45 KABQ 211100
TAFSAF
TAF
KSAF 211129Z 2112/2212 02005KT P6SM OVC080
     FM211800 19008KT P6SM VCSH BKN070
     FM212200 20009KT P6SM VCTS BKN060CB
     FM220100 15006KT P6SM VCSH BKN060
     FM220500 02005KT P6SM BKN070=



000
FTUS45 KABQ 211100
TAFGUP
TAF
KGUP 211129Z 2112/2212 VRB03KT P6SM FEW080
     FM212000 23008KT P6SM VCTS BKN070CB
     FM212300 25007KT P6SM VCSH BKN080
     FM220400 VRB03KT P6SM SCT100=



000
FTUS45 KABQ 211100
TAFSAF
TAF
KSAF 211129Z 2112/2212 02005KT P6SM OVC080
     FM211800 19008KT P6SM VCSH BKN070
     FM212200 20009KT P6SM VCTS BKN060CB
     FM220100 15006KT P6SM VCSH BKN060
     FM220500 02005KT P6SM BKN070=



000
FTUS45 KABQ 211100
TAFTCC
TAF
KTCC 211129Z 2112/2212 26004KT P6SM BKN100
     FM211700 21009KT P6SM BKN090
     FM212000 20013KT P6SM BKN100
     FM220400 23006KT P6SM BKN080
     FM221000 24004KT P6SM OVC030=



000
FTUS45 KABQ 211100
TAFROW
TAF
KROW 211129Z 2112/2212 02003KT P6SM VCSH BKN035
      TEMPO 2112/2115 6SM -RA BR OVC025
     FM211700 16006KT P6SM VCSH OVC050
     FM212000 16010KT P6SM VCTS OVC050CB
     FM212300 16009KT P6SM BKN050
     FM220500 20004KT P6SM BKN025
     FM221000 VRB03KT 4SM BR OVC015=



000
FTUS45 KABQ 211100
TAFLVS
TAF
KLVS 211129Z 2112/2212 06003KT P6SM OVC080
     FM211700 19012KT P6SM VCSH BKN070
     FM212100 18014KT P6SM VCTS BKN060CB
     FM220000 18012KT P6SM VCSH BKN060
     FM220500 20008KT P6SM BKN060=



000
FTUS45 KABQ 211100
TAFABQ
TAF
KABQ 211129Z 2112/2212 36005KT P6SM BKN060
     FM211900 18006KT P6SM VCSH BKN070
     FM212200 17008KT P6SM VCTS BKN070CB
     FM220100 13006KT P6SM VCSH BKN080
     FM220500 11004KT P6SM BKN070=



000
FTUS45 KABQ 211100
TAFFMN
TAF
KFMN 211129Z 2112/2212 09006KT P6SM BKN100
     FM211700 14007KT P6SM BKN100
     FM212100 21007KT P6SM VCTS BKN070CB
     FM220000 26007KT P6SM VCSH BKN080
     FM220400 08006KT P6SM SCT100=



000
FTUS45 KABQ 210900 AAA
TAFROW
TAF AMD
KROW 210927Z 2109/2206 VRB03KT P6SM VCSH FEW026 OVC035
      TEMPO 2109/2113 6SM -RA BR OVC025
     FM211500 17006KT P6SM BKN025 BKN060=



000
FTUS45 KABQ 210700 AAA
TAFSAF
TAF AMD
KSAF 210717Z 2107/2206 14003KT P6SM BKN030
     FM211000 02006KT P6SM BKN025
     FM211600 14006KT P6SM BKN035
     FM211800 20010KT P6SM VCTS SCT060CB BKN100=



000
FTUS45 KABQ 210500
TAFLVS
TAF
KLVS 210534Z 2106/2206 18008KT P6SM BKN040 BKN090
     FM210900 20007KT P6SM BKN015 OVC035
     FM211700 18012KT P6SM SCT050 SCT090
     FM211900 20015KT P6SM VCTS SCT050CB BKN080=



000
FTUS45 KABQ 210500
TAFTCC
TAF
KTCC 210534Z 2106/2206 23006KT P6SM BKN040 BKN100
     FM211100 24006KT P6SM OVC015
     FM211500 21012KT P6SM SCT030 BKN060
     FM212000 19015KT P6SM VCTS BKN060CB BKN100=



000
FTUS45 KABQ 210500
TAFFMN
TAF
KFMN 210534Z 2106/2206 10008KT P6SM SCT060 BKN100
     FM210800 08007KT P6SM SCT070 SCT120
     FM211600 13007KT P6SM SCT120
     FM212000 17007KT P6SM VCTS SCT060CB BKN100=



000
FTUS45 KABQ 210500
TAFSAF
TAF
KSAF 210534Z 2106/2206 11007KT P6SM BKN060 BKN090
     FM210900 02006KT P6SM SCT050 SCT090
     FM211800 20010KT P6SM VCTS SCT060CB BKN100=



000
FTUS45 KABQ 210500
TAFABQ
TAF
KABQ 210534Z 2106/2206 12010KT P6SM VCSH BKN060 BKN100
     FM210700 10008KT P6SM SCT060 BKN100
     FM211100 03006KT P6SM FEW050 SCT100
     FM211900 17008KT P6SM VCTS SCT060CB BKN100=



000
FTUS45 KABQ 210500
TAFROW
TAF
KROW 210534Z 2106/2206 VRB06KT P6SM VCSH BKN040 OVC070
     FM211000 VRB06KT P6SM OVC025
     FM211500 17006KT P6SM BKN025 BKN060=



000
FTUS45 KABQ 210500
TAFGUP
TAF
KGUP 210534Z 2106/2206 VRB06KT P6SM BKN050 OVC090
     FM211100 VRB06KT P6SM SCT040 SCT100
     FM211900 23010KT P6SM VCTS SCT050CB BKN120=



000
FTUS45 KABQ 210100 AAA
TAFROW
TAF AMD
KROW 210127Z 2101/2124 19006KT P6SM VCSH OVC040
      TEMPO 2101/2103 18012G20KT
     FM211000 VRB04KT P6SM OVC030
     FM211500 23005KT P6SM -SHRA OVC025=



000
FTUS45 KABQ 202300
TAFSAF
TAF
KSAF 202336Z 2100/2124 24008KT P6SM VCSH SCT060 BKN090
     FM210300 11008KT P6SM BKN060 BKN090
     FM210900 02006KT P6SM SCT050 SCT090
     FM211800 20010KT P6SM VCTS SCT060CB BKN100=



000
FTUS45 KABQ 202300
TAFFMN
TAF
KFMN 202336Z 2100/2124 11008KT P6SM VCSH BKN050 BKN080
     FM210300 10008KT P6SM SCT060 BKN100
     FM210800 08007KT P6SM SCT070 SCT120
     FM211600 13007KT P6SM SCT120
     FM212000 17007KT P6SM VCTS SCT060CB BKN100=



000
FTUS45 KABQ 202300
TAFGUP
TAF
KGUP 202336Z 2100/2124 05006KT P6SM VCSH SCT060 BKN090
     FM210300 VRB06KT P6SM SCT050 BKN090
     FM211100 VRB06KT P6SM SCT040 SCT100
     FM211900 21010KT P6SM VCTS SCT050CB BKN120=



000
FTUS45 KABQ 202300
TAFLVS
TAF
KLVS 202336Z 2100/2124 08010KT P6SM VCSH BKN050 BKN090
     FM210300 15007KT P6SM BKN050 BKN090
     FM210900 20007KT P6SM BKN015 OVC035
     FM211700 18012KT P6SM SCT050 SCT090
     FM211900 20015KT P6SM VCTS SCT050CB BKN080=



000
FTUS45 KABQ 202300
TAFROW
TAF
KROW 202336Z 2100/2124 15007KT P6SM VCTS BKN050CB
     FM210100 19006KT P6SM -RA OVC040
     FM211000 VRB04KT P6SM OVC030
     FM211500 23005KT P6SM -SHRA OVC025=



000
FTUS45 KABQ 202300
TAFABQ
TAF
KABQ 202336Z 2100/2124 12010KT P6SM VCSH BKN060 BKN100
     FM210400 10008KT P6SM SCT060 BKN100
     FM211000 14006KT P6SM FEW050 SCT100
     FM211900 17008KT P6SM VCTS SCT060CB BKN100=



000
FTUS45 KABQ 202300
TAFTCC
TAF
KTCC 202336Z 2100/2124 15007KT P6SM VCTS SCT050CB BKN080
      TEMPO 2100/2102 VRB15G25KT OVC050CB
     FM210200 VRB06KT P6SM VCSH SCT050 BKN090
     FM210600 21006KT P6SM BKN040 BKN100
     FM211000 23006KT P6SM OVC015
     FM211500 21012KT P6SM SCT030 BKN060
     FM212000 19015KT P6SM VCTS BKN060CB BKN100=



000
FTUS45 KABQ 202100 AAA
TAFABQ
TAF AMD
KABQ 202128Z 2021/2118 06011KT P6SM VCTS BKN060CB
      TEMPO 2021/2023 VRB15G23KT SHRA BKN050
     FM202300 09010KT P6SM VCSH BKN060 BKN100
     FM210400 11005KT P6SM SCT060 BKN100=



000
FTUS45 KABQ 202100 AAA
TAFROW
TAF AMD
KROW 202115Z 2021/2118 20005KT P6SM SCT035 SCT050
     FM202200 15007KT P6SM VCTS BKN050CB
     FM210100 19006KT P6SM -RA OVC040
     FM211000 VRB04KT P6SM OVC030
     FM211500 23005KT P6SM -SHRA OVC025=



000
FTUS45 KABQ 201700 CCA
TAFGUP
TAF COR
KGUP 201758Z 2018/2118 12005KT P6SM VCSH OVC060
     FM210300 VRB03KT P6SM BKN070=



000
FTUS45 KABQ 201700
TAFTCC
TAF
KTCC 201736Z 2018/2118 08006KT P6SM SCT090
     FM202200 12007KT P6SM VCTS SCT050CB BKN080
     FM210100 VRB05KT P6SM VCSH SCT050 BKN090
     FM210600 23005KT P6SM SCT060 SCT100=



000
FTUS45 KABQ 201700
TAFFMN
TAF
KFMN 201736Z 2018/2118 VRB04KT P6SM FEW080
     FM201930 13008KT P6SM SCT080
     FM202200 15010KT P6SM VCSH BKN070
     FM210300 10008KT P6SM BKN100=



000
FTUS45 KABQ 201700
TAFSAF
TAF
KSAF 201736Z 2018/2118 01010KT P6SM FEW070
     FM202000 14010KT P6SM VCSH SCT070 SCT150
     FM210300 11008KT P6SM BKN060
     FM210700 02005KT P6SM SCT050 SCT090=



000
FTUS45 KABQ 201700
TAFGUP
TAF
KGUP 201736Z 2018/2118 09005KT P6SM OVC070
     FM202000 11006KT P6SM VCSH OVC060
     FM210300 VRB03KT P6SM BKN070=



000
FTUS45 KABQ 201700
TAFLVS
TAF
KLVS 201736Z 2018/2118 08008KT P6SM FEW070
     FM201930 11008KT P6SM BKN060
     FM210200 19005KT P6SM SCT035 BKN050=



000
FTUS45 KABQ 201700
TAFROW
TAF
KROW 201736Z 2018/2118 02005KT P6SM BKN030
     FM202300 15007KT P6SM VCSH BKN050
     FM210100 19006KT P6SM -RA OVC040
     FM211000 VRB04KT P6SM OVC030
     FM211500 23005KT P6SM -SHRA OVC025=



000
FTUS45 KABQ 201700
TAFABQ
TAF
KABQ 201736Z 2018/2118 19005KT P6SM SCT070 BKN150
     FM202000 13010KT P6SM VCSH BKN060
      TEMPO 2021/2023 VRB15G23KT SHRA BKN050
     FM210200 11005KT P6SM SCT060 BKN100=



000
FTUS45 KABQ 201300 AAA
TAFGUP
TAF AMD
KGUP 201321Z 2013/2112 00000KT P6SM SKC
     FM201700 08006KT P6SM SCT040
     FM202000 09006KT P6SM VCSH BKN060
     FM210300 VRB03KT P6SM BKN070=



000
FTUS45 KABQ 201300 AAA
TAFROW
TAF AMD
KROW 201308Z 2013/2112 33003KT P6SM BKN015
     FM201700 13006KT P6SM BKN035
     FM202200 15008KT P6SM VCTS BKN050CB
     FM210100 19006KT P6SM OVC050
     FM211000 21003KT P6SM OVC025=



000
FTUS45 KABQ 201100
TAFGUP
TAF
KGUP 201125Z 2012/2112 00000KT P6SM SKC
      TEMPO 2012/2014 3SM BR SCT002
     FM201700 08006KT P6SM SCT040
     FM202000 09006KT P6SM VCSH BKN060
     FM210300 VRB03KT P6SM BKN070=



000
FTUS45 KABQ 201100
TAFFMN
TAF
KFMN 201125Z 2012/2112 08005KT P6SM FEW070
     FM201800 12008KT P6SM SCT070 BKN120
     FM202100 15011KT P6SM VCSH BKN070
     FM210300 11008KT P6SM BKN090=



000
FTUS45 KABQ 201100
TAFABQ
TAF
KABQ 201125Z 2012/2112 00000KT P6SM FEW050
     FM201700 12006KT P6SM SCT060
     FM201900 13010KT P6SM VCSH BKN060
     FM210200 11005KT P6SM BKN080=



000
FTUS45 KABQ 201100
TAFSAF
TAF
KSAF 201125Z 2012/2112 02005KT P6SM SCT090
     FM201900 13009KT P6SM VCSH SCT070
     FM202200 14011KT P6SM VCTS BKN070CB
     FM210100 12008KT P6SM BKN070
     FM210700 02005KT P6SM BKN080=



000
FTUS45 KABQ 201100
TAFROW
TAF
KROW 201125Z 2012/2112 35004KT P6SM BKN060
     FM201300 35003KT P6SM OVC025
     FM201700 13006KT P6SM BKN035
     FM202200 15008KT P6SM VCTS BKN050CB
     FM210100 19006KT P6SM OVC050
     FM211000 21003KT P6SM OVC025=



000
FTUS45 KABQ 201100
TAFTCC
TAF
KTCC 201125Z 2012/2112 29005KT P6SM BKN120
     FM201700 07006KT P6SM BKN100
     FM210000 12007KT P6SM VCSH BKN090
     FM210600 24006KT P6SM BKN120=



000
FTUS45 KABQ 201100
TAFLVS
TAF
KLVS 201125Z 2012/2112 02003KT P6SM FEW060
     FM201600 11007KT P6SM SCT060
     FM201900 14012KT P6SM BKN070
     FM210200 17007KT P6SM BKN080=



    US Dept of Commerce
    National Oceanic and Atmospheric Administration
    National Weather Service
    1325 East West Highway
    Silver Spring, MD 20910
    Page Author: NWS Internet Services Team
Disclaimer
Information Quality
Credits
Glossary
Privacy Policy
Freedom of Information Act (FOIA)
About Us
Career Opportunities